Terminal Aerodrome Forecast
Issued by NWS Tulsa, OK

Home | Current Version | Previous Version | Text Only | Print | Product List | Glossary On
Versions: 1 2 3 4 5 6 7 8 9 10 11 12 13 14
000
FTUS44 KTSA 291100
TAFTUL
TAF
KTUL 291120Z 2912/3012 16014G23KT P6SM SCT250
     FM291800 24010KT P6SM BKN120
     FM292100 34009KT P6SM BKN100
     FM300100 01005KT P6SM SCT120=

USA.gov is the U.S. government's official web portal to all federal, state and local government web resources and services.